Time;durP1;ratioP1;P1;durP2;ratioP2;P2;SDS_P1;SDS_P2;PMS_P1;PMS_P2;Temp;Humidity;BMP_temperature;BMP_pressure;BME280_temperature;BME280_humidity;BME280_pressure;Samples;Min_cycle;Max_cycle;Signal;HPM_P1;HPM_P2
2021/11/07 00:06:39;;;;;;;29.63;10.98;;;;;;;;;;4975762;28;20046;-70
2021/11/07 00:09:17;;;;;;;46.58;12.40;;;;;;;;;;4955269;28;20125;-70
2021/11/07 00:11:44;;;;;;;37.20;11.10;;;;;;;;;;4972615;28;20412;-70
2021/11/07 00:14:11;;;;;;;32.92;11.40;;;;;;;;;;4950813;28;20030;-70
2021/11/07 00:16:39;;;;;;;44.78;14.32;;;;;;;;;;4956739;28;20038;-70
2021/11/07 00:19:15;;;;;;;43.47;12.32;;;;;;;;;;4962786;28;20452;-70
2021/11/07 00:24:24;;;;;;;39.95;11.95;;;;;;;;;;4975419;28;20031;-70
2021/11/07 00:27:02;;;;;;;46.20;12.68;;;;;;;;;;4965255;28;20042;-72
2021/11/07 00:29:33;;;;;;;32.38;11.82;;;;;;;;;;4981369;28;20077;-70
2021/11/07 00:32:23;;;;;;;34.25;12.05;;;;;;;;;;4974706;28;20058;-71
2021/11/07 00:37:39;;;;;;;34.35;12.95;;;;;;;;;;4978448;28;20376;-70
2021/11/07 00:45:28;;;;;;;34.05;12.52;;;;;;;;;;4986641;28;20035;-71
2021/11/07 00:50:59;;;;;;;27.10;12.45;;;;;;;;;;4976197;28;20049;-70
2021/11/07 00:56:19;;;;;;;34.28;13.25;;;;;;;;;;4976635;28;20038;-71
2021/11/07 00:59:10;;;;;;;22.17;11.93;;;;;;;;;;4972220;28;20091;-70
2021/11/07 01:01:40;;;;;;;35.13;14.18;;;;;;;;;;4961532;28;20042;-70
2021/11/07 01:04:07;;;;;;;23.27;11.55;;;;;;;;;;4982386;28;20023;-72
2021/11/07 01:06:34;;;;;;;27.02;10.98;;;;;;;;;;4974381;28;20492;-71
2021/11/07 01:09:00;;;;;;;34.28;10.93;;;;;;;;;;4973273;28;20046;-72
2021/11/07 01:11:27;;;;;;;31.35;10.95;;;;;;;;;;4958044;28;20388;-71
2021/11/07 01:13:53;;;;;;;35.30;11.15;;;;;;;;;;4950820;28;20030;-70
2021/11/07 01:16:19;;;;;;;31.13;12.48;;;;;;;;;;4985816;28;20106;-71
2021/11/07 01:18:46;;;;;;;25.30;12.90;;;;;;;;;;4972640;28;20114;-70
2021/11/07 01:21:14;;;;;;;28.33;12.32;;;;;;;;;;4963433;28;20022;-71
2021/11/07 01:23:52;;;;;;;24.35;11.60;;;;;;;;;;4958543;28;20027;-71
2021/11/07 01:26:55;;;;;;;24.17;11.35;;;;;;;;;;4968479;28;20082;-72
2021/11/07 01:31:38;;;;;;;25.05;13.10;;;;;;;;;;4981995;28;20477;-70
2021/11/07 01:34:05;;;;;;;28.10;13.32;;;;;;;;;;4972199;28;20085;-71
2021/11/07 01:39:13;;;;;;;29.25;12.55;;;;;;;;;;4972995;28;20081;-72
2021/11/07 01:44:58;;;;;;;27.15;12.63;;;;;;;;;;4886332;29;20036;-70
2021/11/07 01:47:25;;;;;;;29.02;13.52;;;;;;;;;;4876361;29;20040;-72
2021/11/07 01:49:51;;;;;;;29.27;14.13;;;;;;;;;;4934359;28;20665;-71
2021/11/07 01:52:18;;;;;;;34.30;13.63;;;;;;;;;;4957217;28;20023;-72
2021/11/07 01:57:14;;;;;;;31.90;12.45;;;;;;;;;;4982068;28;20440;-71
2021/11/07 01:59:47;;;;;;;29.50;12.90;;;;;;;;;;4957579;28;20607;-70
2021/11/07 02:02:14;;;;;;;21.23;12.55;;;;;;;;;;4978660;28;20396;-70
2021/11/07 02:04:41;;;;;;;33.15;12.70;;;;;;;;;;4965850;28;20039;-72
2021/11/07 02:07:07;;;;;;;23.17;12.75;;;;;;;;;;4984334;28;20035;-71
2021/11/07 02:09:33;;;;;;;28.75;13.52;;;;;;;;;;4982473;28;20084;-70
2021/11/07 02:11:59;;;;;;;31.95;14.73;;;;;;;;;;4961210;28;20035;-72
2021/11/07 02:14:25;;;;;;;28.35;12.98;;;;;;;;;;4965602;28;20049;-72
2021/11/07 02:16:51;;;;;;;26.80;13.93;;;;;;;;;;4964847;28;20037;-71
2021/11/07 02:19:18;;;;;;;25.08;13.63;;;;;;;;;;4951353;28;20031;-71
2021/11/07 02:21:45;;;;;;;27.83;14.35;;;;;;;;;;4970848;28;20022;-72
2021/11/07 02:24:15;;;;;;;22.25;12.80;;;;;;;;;;4967272;28;20085;-71
2021/11/07 02:26:43;;;;;;;25.83;14.32;;;;;;;;;;4971873;28;20037;-72
2021/11/07 02:29:09;;;;;;;29.30;14.63;;;;;;;;;;4976076;28;20125;-71
2021/11/07 02:31:35;;;;;;;25.67;13.23;;;;;;;;;;4964889;28;20035;-72
2021/11/07 02:34:01;;;;;;;34.60;14.20;;;;;;;;;;4960479;28;20054;-72
2021/11/07 02:36:27;;;;;;;29.45;13.43;;;;;;;;;;4979186;28;20097;-72
2021/11/07 02:38:53;;;;;;;36.20;13.77;;;;;;;;;;4970889;28;20034;-71
2021/11/07 02:41:19;;;;;;;27.27;13.60;;;;;;;;;;4971887;28;20039;-71
2021/11/07 02:43:45;;;;;;;35.63;14.00;;;;;;;;;;4971046;28;20038;-70
2021/11/07 02:46:17;;;;;;;25.77;11.90;;;;;;;;;;4967244;28;20026;-72
2021/11/07 02:48:45;;;;;;;24.90;11.77;;;;;;;;;;4955819;28;20026;-71
2021/11/07 02:51:11;;;;;;;24.42;12.65;;;;;;;;;;4967813;28;20081;-73
2021/11/07 02:53:37;;;;;;;40.90;11.77;;;;;;;;;;4958441;28;20035;-71
2021/11/07 02:56:04;;;;;;;34.95;12.73;;;;;;;;;;4979901;28;20050;-71
2021/11/07 02:58:31;;;;;;;25.58;12.60;;;;;;;;;;4968466;28;20058;-70
2021/11/07 03:00:57;;;;;;;30.73;11.65;;;;;;;;;;4970063;28;20031;-71
2021/11/07 03:03:23;;;;;;;33.25;13.77;;;;;;;;;;4970369;28;20101;-70
2021/11/07 03:05:49;;;;;;;22.20;13.68;;;;;;;;;;4961326;28;20475;-70
2021/11/07 03:08:16;;;;;;;29.38;13.48;;;;;;;;;;4970256;28;20098;-70
2021/11/07 03:10:42;;;;;;;33.97;14.55;;;;;;;;;;4949807;28;20035;-70
2021/11/07 03:13:09;;;;;;;32.95;14.25;;;;;;;;;;4969649;28;20111;-70
2021/11/07 03:15:36;;;;;;;32.92;13.50;;;;;;;;;;4971737;28;20058;-70
2021/11/07 03:18:02;;;;;;;25.83;12.55;;;;;;;;;;4957074;28;20027;-70
2021/11/07 03:20:28;;;;;;;30.20;13.45;;;;;;;;;;4959110;28;20026;-70
2021/11/07 03:22:56;;;;;;;34.83;15.05;;;;;;;;;;4970585;28;20054;-70
2021/11/07 03:25:24;;;;;;;28.50;14.13;;;;;;;;;;4969189;28;20023;-70
2021/11/07 03:27:50;;;;;;;28.88;15.43;;;;;;;;;;4970777;28;20102;-71
2021/11/07 03:30:40;;;;;;;28.55;14.65;;;;;;;;;;4971507;28;20026;-71
2021/11/07 03:33:20;;;;;;;31.75;16.05;;;;;;;;;;4965653;28;20473;-70
2021/11/07 03:35:47;;;;;;;25.58;17.27;;;;;;;;;;4954615;28;20023;-70
2021/11/07 03:38:14;;;;;;;30.83;17.88;;;;;;;;;;4970073;28;20023;-70
2021/11/07 03:40:40;;;;;;;35.25;18.45;;;;;;;;;;4971055;28;20391;-70
2021/11/07 03:43:06;;;;;;;33.05;19.15;;;;;;;;;;4971020;28;20026;-70
2021/11/07 03:45:32;;;;;;;31.83;19.33;;;;;;;;;;4971709;28;20471;-70
2021/11/07 03:47:59;;;;;;;34.13;16.75;;;;;;;;;;4970641;28;20376;-71
2021/11/07 03:50:27;;;;;;;33.22;16.67;;;;;;;;;;4970647;28;20031;-71
2021/11/07 03:52:53;;;;;;;39.03;16.77;;;;;;;;;;4964765;28;20410;-71
2021/11/07 03:55:19;;;;;;;31.27;16.95;;;;;;;;;;4975670;28;20399;-71
2021/11/07 03:57:45;;;;;;;25.00;15.73;;;;;;;;;;4970341;28;20031;-71
2021/11/07 04:00:13;;;;;;;26.48;16.20;;;;;;;;;;4966477;28;20084;-72
2021/11/07 04:02:39;;;;;;;24.70;14.57;;;;;;;;;;4974384;28;20054;-71
2021/11/07 04:05:07;;;;;;;30.08;16.40;;;;;;;;;;4974463;28;20403;-71
2021/11/07 04:07:33;;;;;;;33.65;15.50;;;;;;;;;;4978698;28;20029;-74
2021/11/07 04:09:59;;;;;;;33.35;16.38;;;;;;;;;;4969059;28;20030;-71
2021/11/07 04:12:25;;;;;;;30.88;15.10;;;;;;;;;;4954364;28;20403;-70
2021/11/07 04:14:51;;;;;;;28.23;14.77;;;;;;;;;;4961687;28;20480;-71
2021/11/07 04:17:17;;;;;;;38.45;16.65;;;;;;;;;;4971885;28;20558;-71
2021/11/07 04:19:43;;;;;;;30.25;14.32;;;;;;;;;;4969482;28;20118;-71
2021/11/07 04:22:12;;;;;;;42.00;16.35;;;;;;;;;;4973691;28;20070;-71
2021/11/07 04:24:38;;;;;;;45.13;15.80;;;;;;;;;;4968463;28;20558;-71
2021/11/07 04:27:05;;;;;;;28.00;15.00;;;;;;;;;;4975087;28;20027;-71
2021/11/07 04:29:31;;;;;;;31.85;13.77;;;;;;;;;;4963501;28;20034;-71
2021/11/07 04:31:58;;;;;;;29.50;14.23;;;;;;;;;;4971303;28;20035;-71
2021/11/07 04:34:24;;;;;;;26.05;13.68;;;;;;;;;;4952546;28;20045;-71
2021/11/07 04:36:50;;;;;;;28.92;13.00;;;;;;;;;;4976915;28;20031;-71
2021/11/07 04:39:16;;;;;;;35.33;14.15;;;;;;;;;;4970127;28;20027;-72
2021/11/07 04:41:42;;;;;;;27.23;13.52;;;;;;;;;;4970405;28;20476;-71
2021/11/07 04:44:08;;;;;;;24.27;13.20;;;;;;;;;;4969696;28;20416;-71
2021/11/07 04:46:36;;;;;;;29.52;13.63;;;;;;;;;;4971508;28;20097;-71
2021/11/07 04:49:02;;;;;;;21.85;12.20;;;;;;;;;;4981130;28;20110;-72
2021/11/07 04:51:28;;;;;;;29.60;12.75;;;;;;;;;;4978125;28;20065;-71
2021/11/07 04:53:54;;;;;;;28.90;13.52;;;;;;;;;;4974402;28;20372;-72
2021/11/07 04:56:21;;;;;;;27.60;12.52;;;;;;;;;;4975231;28;20027;-71
2021/11/07 04:58:47;;;;;;;17.65;10.68;;;;;;;;;;4957505;28;20085;-71
2021/11/07 05:01:13;;;;;;;39.25;13.88;;;;;;;;;;4973524;28;20030;-71
2021/11/07 05:03:39;;;;;;;34.88;13.70;;;;;;;;;;4978555;28;20031;-72
2021/11/07 05:06:05;;;;;;;35.67;12.77;;;;;;;;;;4978608;28;20070;-71
2021/11/07 05:08:31;;;;;;;23.75;11.80;;;;;;;;;;4973465;28;20117;-73
2021/11/07 05:10:58;;;;;;;31.90;11.32;;;;;;;;;;4974329;28;20116;-72
2021/11/07 05:13:24;;;;;;;25.17;11.00;;;;;;;;;;4978980;28;20042;-72
2021/11/07 05:15:50;;;;;;;29.73;10.88;;;;;;;;;;4982840;28;20038;-71
2021/11/07 05:18:18;;;;;;;34.00;11.98;;;;;;;;;;4975927;28;20042;-71
2021/11/07 05:20:44;;;;;;;34.00;11.77;;;;;;;;;;4971878;28;20517;-71
2021/11/07 05:23:10;;;;;;;26.20;12.27;;;;;;;;;;4955442;28;20027;-71
2021/11/07 05:25:36;;;;;;;29.95;9.77;;;;;;;;;;4974814;28;20046;-73
2021/11/07 05:28:03;;;;;;;31.38;11.00;;;;;;;;;;4962451;28;20056;-71
2021/11/07 05:30:29;;;;;;;24.17;10.43;;;;;;;;;;4982679;28;20039;-71
2021/11/07 05:32:55;;;;;;;27.40;10.52;;;;;;;;;;4973677;28;20034;-71
2021/11/07 05:35:21;;;;;;;23.67;9.93;;;;;;;;;;4979557;28;20542;-71
2021/11/07 05:37:48;;;;;;;19.58;10.52;;;;;;;;;;4973126;28;20530;-70
2021/11/07 05:40:14;;;;;;;24.25;10.07;;;;;;;;;;4968261;28;20038;-71
2021/11/07 05:42:41;;;;;;;31.35;10.27;;;;;;;;;;4978663;28;20049;-70
2021/11/07 05:45:07;;;;;;;25.60;10.90;;;;;;;;;;4976666;28;20450;-71
2021/11/07 05:47:34;;;;;;;33.20;10.48;;;;;;;;;;4964697;28;20516;-72
2021/11/07 05:50:00;;;;;;;29.23;10.38;;;;;;;;;;4973899;28;20723;-71
2021/11/07 05:52:26;;;;;;;21.77;9.88;;;;;;;;;;4973849;28;20030;-70
2021/11/07 05:54:52;;;;;;;28.35;10.18;;;;;;;;;;4973018;28;20550;-71
2021/11/07 05:57:19;;;;;;;31.65;9.82;;;;;;;;;;4968782;28;20558;-70
2021/11/07 05:59:45;;;;;;;23.70;9.43;;;;;;;;;;4975620;28;20031;-70
2021/11/07 06:02:11;;;;;;;25.95;9.95;;;;;;;;;;4973088;28;20027;-71
2021/11/07 06:04:37;;;;;;;25.92;10.40;;;;;;;;;;4971645;28;20439;-71
2021/11/07 06:07:03;;;;;;;23.50;10.65;;;;;;;;;;4976281;28;20035;-71
2021/11/07 06:09:29;;;;;;;27.60;11.05;;;;;;;;;;4959338;28;20455;-70
2021/11/07 06:11:56;;;;;;;23.70;9.30;;;;;;;;;;4972532;28;20506;-71
2021/11/07 06:14:22;;;;;;;28.08;10.15;;;;;;;;;;4968736;28;20058;-71
2021/11/07 06:16:48;;;;;;;29.58;10.43;;;;;;;;;;4961585;28;20042;-71
2021/11/07 06:19:14;;;;;;;27.83;10.38;;;;;;;;;;4971402;28;20073;-72
2021/11/07 06:21:41;;;;;;;35.03;10.00;;;;;;;;;;4958810;28;20034;-72
2021/11/07 06:24:11;;;;;;;23.23;10.15;;;;;;;;;;4974932;28;20038;-72
2021/11/07 06:26:37;;;;;;;28.83;8.23;;;;;;;;;;4964092;28;20034;-73
2021/11/07 06:29:03;;;;;;;28.25;9.13;;;;;;;;;;4971633;28;20023;-72
2021/11/07 06:31:30;;;;;;;29.90;8.52;;;;;;;;;;4972427;28;20034;-72
2021/11/07 06:33:56;;;;;;;27.15;8.85;;;;;;;;;;4971849;28;20027;-73
2021/11/07 06:36:22;;;;;;;22.83;8.50;;;;;;;;;;4970546;28;20026;-73
2021/11/07 06:38:48;;;;;;;20.65;9.60;;;;;;;;;;4950974;28;20035;-72
2021/11/07 06:41:14;;;;;;;25.58;9.00;;;;;;;;;;4973092;28;20125;-72
2021/11/07 06:43:41;;;;;;;25.20;8.48;;;;;;;;;;4972459;28;20031;-71
2021/11/07 06:46:07;;;;;;;31.27;9.85;;;;;;;;;;4979851;28;20577;-71
2021/11/07 06:48:34;;;;;;;26.00;8.27;;;;;;;;;;4953757;28;20062;-72
2021/11/07 06:51:01;;;;;;;32.95;7.72;;;;;;;;;;4974433;28;20050;-71
2021/11/07 06:53:28;;;;;;;18.52;9.10;;;;;;;;;;4964404;28;20117;-71
2021/11/07 06:55:54;;;;;;;29.05;8.88;;;;;;;;;;4971987;28;20031;-72
2021/11/07 06:58:21;;;;;;;25.27;9.00;;;;;;;;;;4970916;28;20077;-72
2021/11/07 07:00:47;;;;;;;29.67;10.13;;;;;;;;;;4975312;28;20451;-71
2021/11/07 07:03:13;;;;;;;31.05;10.98;;;;;;;;;;4957567;28;20034;-71
2021/11/07 07:05:39;;;;;;;25.10;8.38;;;;;;;;;;4972171;28;20018;-70
2021/11/07 07:08:12;;;;;;;26.00;9.02;;;;;;;;;;4960522;28;20019;-72
2021/11/07 07:10:49;;;;;;;24.33;10.07;;;;;;;;;;4975288;28;20022;-71
2021/11/07 07:13:21;;;;;;;26.08;9.32;;;;;;;;;;4976705;28;20026;-70
2021/11/07 07:15:56;;;;;;;30.60;9.32;;;;;;;;;;4967044;28;20031;-70
2021/11/07 07:21:16;;;;;;;27.30;9.77;;;;;;;;;;4938053;28;20520;-71
2021/11/07 07:31:59;;;;;;;29.95;9.57;;;;;;;;;;4935032;28;20039;-72
2021/11/07 07:34:26;;;;;;;29.65;8.98;;;;;;;;;;4971692;28;20117;-71
2021/11/07 07:36:53;;;;;;;30.15;9.52;;;;;;;;;;4980257;28;20201;-71
2021/11/07 07:39:20;;;;;;;27.42;9.27;;;;;;;;;;4969921;28;20057;-71
2021/11/07 07:41:46;;;;;;;25.63;10.65;;;;;;;;;;4972610;28;20046;-71
2021/11/07 07:44:12;;;;;;;25.88;10.10;;;;;;;;;;4964979;28;20023;-71
2021/11/07 07:46:41;;;;;;;27.23;8.73;;;;;;;;;;4975430;28;20035;-72
2021/11/07 07:49:08;;;;;;;28.15;9.52;;;;;;;;;;4970211;28;20031;-70
2021/11/07 07:51:35;;;;;;;31.00;9.52;;;;;;;;;;4961315;28;20089;-70
2021/11/07 07:54:02;;;;;;;33.83;10.93;;;;;;;;;;4963892;28;20019;-71
2021/11/07 07:56:28;;;;;;;27.52;9.35;;;;;;;;;;4975752;28;20439;-71
2021/11/07 07:58:55;;;;;;;28.13;10.48;;;;;;;;;;4975254;28;20111;-71
2021/11/07 08:01:21;;;;;;;32.38;9.48;;;;;;;;;;4961543;28;20066;-70
2021/11/07 08:03:47;;;;;;;27.15;9.48;;;;;;;;;;4969591;28;20384;-71
2021/11/07 08:06:13;;;;;;;31.77;9.48;;;;;;;;;;4971347;28;20427;-71
2021/11/07 08:08:39;;;;;;;26.90;9.93;;;;;;;;;;4969244;28;20696;-71
2021/11/07 08:11:05;;;;;;;29.08;9.25;;;;;;;;;;4971708;28;20411;-71
2021/11/07 08:13:31;;;;;;;28.20;8.43;;;;;;;;;;4979749;28;20483;-71
2021/11/07 08:15:57;;;;;;;23.10;9.00;;;;;;;;;;4970594;28;20052;-70
2021/11/07 08:18:24;;;;;;;33.17;10.23;;;;;;;;;;4970025;28;20447;-74
2021/11/07 08:20:50;;;;;;;26.67;8.80;;;;;;;;;;4976292;28;20407;-70
2021/11/07 08:23:20;;;;;;;28.58;9.63;;;;;;;;;;4977281;28;20085;-71
2021/11/07 08:25:46;;;;;;;31.35;10.48;;;;;;;;;;4969312;28;20026;-71
2021/11/07 08:28:12;;;;;;;24.27;8.85;;;;;;;;;;4980862;28;20015;-71
2021/11/07 08:30:41;;;;;;;26.00;9.05;;;;;;;;;;4967886;28;20030;-70
2021/11/07 08:33:07;;;;;;;29.45;9.13;;;;;;;;;;4978268;28;20089;-70
2021/11/07 08:35:38;;;;;;;34.45;9.45;;;;;;;;;;4972224;28;20027;-70
2021/11/07 08:38:08;;;;;;;25.37;9.70;;;;;;;;;;4970915;28;20023;-71
2021/11/07 08:40:41;;;;;;;26.88;8.90;;;;;;;;;;4956697;28;20051;-69
2021/11/07 09:10:27;;;;;;;23.85;9.25;;;;;;;;;;4975277;28;20121;-70
2021/11/07 09:12:53;;;;;;;32.22;10.00;;;;;;;;;;4981007;28;20029;-70
2021/11/07 09:15:21;;;;;;;36.42;11.07;;;;;;;;;;4955416;28;20508;-70
2021/11/07 09:17:48;;;;;;;32.20;9.73;;;;;;;;;;4969777;28;20031;-70
2021/11/07 09:20:21;;;;;;;25.40;9.40;;;;;;;;;;4973988;28;20027;-69
2021/11/07 09:22:51;;;;;;;25.92;8.90;;;;;;;;;;4975654;28;20042;-70
2021/11/07 09:25:27;;;;;;;32.75;9.95;;;;;;;;;;4979264;28;20033;-70
2021/11/07 09:27:58;;;;;;;25.20;8.75;;;;;;;;;;4965180;28;20185;-69
2021/11/07 09:30:32;;;;;;;30.92;9.52;;;;;;;;;;4973958;28;20031;-70
2021/11/07 09:33:11;;;;;;;32.33;12.30;;;;;;;;;;4974179;28;20411;-70
2021/11/07 09:38:12;;;;;;;28.55;9.00;;;;;;;;;;4948502;28;20626;-69
2021/11/07 09:40:44;;;;;;;27.95;9.20;;;;;;;;;;4958449;28;20019;-69
2021/11/07 09:43:21;;;;;;;39.25;9.93;;;;;;;;;;4954988;28;20122;-71
2021/11/07 09:48:56;;;;;;;31.33;11.07;;;;;;;;;;4884694;29;20107;-70
2021/11/07 09:51:28;;;;;;;28.95;9.77;;;;;;;;;;4938165;28;20289;-69
2021/11/07 09:53:55;;;;;;;17.30;8.07;;;;;;;;;;4954617;28;20062;-69
2021/11/07 09:56:23;;;;;;;25.63;9.93;;;;;;;;;;4960731;28;20045;-69
2021/11/07 09:58:52;;;;;;;33.47;9.43;;;;;;;;;;4948903;28;20102;-69
2021/11/07 10:01:19;;;;;;;24.00;8.15;;;;;;;;;;4961327;28;20039;-68
2021/11/07 10:03:45;;;;;;;26.55;8.68;;;;;;;;;;4949905;28;20027;-69
2021/11/07 10:06:25;;;;;;;36.30;12.35;;;;;;;;;;4954925;28;20019;-69
2021/11/07 10:08:52;;;;;;;35.17;9.38;;;;;;;;;;4940322;28;20725;-70
2021/11/07 10:11:18;;;;;;;33.75;10.90;;;;;;;;;;4952517;28;20063;-69
2021/11/07 10:14:02;;;;;;;29.38;10.30;;;;;;;;;;4951130;28;20490;-70
2021/11/07 10:16:36;;;;;;;31.75;9.52;;;;;;;;;;4952523;28;20063;-69
2021/11/07 10:19:27;;;;;;;31.67;9.52;;;;;;;;;;4946610;28;20030;-69
2021/11/07 10:21:54;;;;;;;36.35;10.60;;;;;;;;;;4950422;28;20023;-69
2021/11/07 10:24:25;;;;;;;39.83;11.40;;;;;;;;;;4950020;28;20039;-69
2021/11/07 10:26:59;;;;;;;39.53;9.88;;;;;;;;;;4960502;28;20031;-70
2021/11/07 10:29:35;;;;;;;30.00;8.60;;;;;;;;;;4944150;28;20047;-69
2021/11/07 10:32:20;;;;;;;31.75;9.48;;;;;;;;;;4951405;28;20031;-69
2021/11/07 10:40:05;;;;;;;30.95;9.00;;;;;;;;;;4948307;28;20046;-70
2021/11/07 10:53:56;;;;;;;35.72;9.70;;;;;;;;;;4950215;28;20627;-69
2021/11/07 10:56:23;;;;;;;25.45;9.13;;;;;;;;;;4949523;28;20019;-69
2021/11/07 10:58:50;;;;;;;31.40;9.80;;;;;;;;;;4947969;28;20063;-69
2021/11/07 11:01:25;;;;;;;42.33;11.98;;;;;;;;;;4945469;28;20100;-70
2021/11/07 11:03:59;;;;;;;33.35;9.38;;;;;;;;;;4949186;28;20027;-69
2021/11/07 11:06:26;;;;;;;38.30;9.15;;;;;;;;;;4947780;28;20032;-69
2021/11/07 11:09:00;;;;;;;38.78;10.40;;;;;;;;;;4947812;28;20034;-69
2021/11/07 11:19:30;;;;;;;33.50;9.25;;;;;;;;;;4943840;28;20035;-69
2021/11/07 11:22:09;;;;;;;31.45;8.57;;;;;;;;;;4949758;28;20038;-69
2021/11/07 11:32:18;;;;;;;33.63;9.85;;;;;;;;;;4949083;28;20043;-69
2021/11/07 11:37:52;;;;;;;46.13;12.50;;;;;;;;;;4920704;28;20039;-69
2021/11/07 11:43:10;;;;;;;50.15;11.57;;;;;;;;;;4947954;28;20050;-68
2021/11/07 11:45:42;;;;;;;33.45;10.68;;;;;;;;;;4945678;28;20561;-69
2021/11/07 11:49:04;;;;;;;37.45;10.38;;;;;;;;;;4945393;28;20212;-69
2021/11/07 12:00:44;;;;;;;37.90;10.27;;;;;;;;;;4945311;28;20028;-69
2021/11/07 12:03:10;;;;;;;36.83;12.13;;;;;;;;;;4941923;28;20464;-69
2021/11/07 12:05:45;;;;;;;31.92;10.25;;;;;;;;;;4944189;28;20094;-70
2021/11/07 12:16:11;;;;;;;27.70;9.00;;;;;;;;;;4948147;28;20027;-68
2021/11/07 12:18:56;;;;;;;31.95;9.55;;;;;;;;;;4944720;28;20027;-69
2021/11/07 12:21:23;;;;;;;33.78;9.48;;;;;;;;;;4944007;28;20143;-68
2021/11/07 12:24:05;;;;;;;30.48;10.35;;;;;;;;;;4945655;28;20023;-68
2021/11/07 12:26:31;;;;;;;33.60;9.35;;;;;;;;;;4950325;28;20501;-69
2021/11/07 12:28:59;;;;;;;34.70;9.10;;;;;;;;;;4932869;28;20055;-69
2021/11/07 12:31:25;;;;;;;40.05;10.52;;;;;;;;;;4949404;28;20118;-68
2021/11/07 12:33:57;;;;;;;31.65;9.02;;;;;;;;;;4949997;28;20484;-69
2021/11/07 12:42:16;;;;;;;38.72;10.60;;;;;;;;;;4919086;28;20027;-69
2021/11/07 12:44:47;;;;;;;39.88;11.90;;;;;;;;;;4948452;28;20043;-68
2021/11/07 12:47:14;;;;;;;32.90;11.05;;;;;;;;;;4947282;28;20043;-69
2021/11/07 12:49:40;;;;;;;27.83;9.48;;;;;;;;;;4943781;28;20027;-68
2021/11/07 12:52:06;;;;;;;31.85;10.85;;;;;;;;;;4953528;28;20074;-69
2021/11/07 12:54:33;;;;;;;31.23;9.32;;;;;;;;;;4951716;28;20027;-69
2021/11/07 12:57:00;;;;;;;37.08;10.63;;;;;;;;;;4948536;28;20032;-69
2021/11/07 12:59:35;;;;;;;34.80;11.15;;;;;;;;;;4944768;28;20250;-69
2021/11/07 13:02:06;;;;;;;36.17;10.93;;;;;;;;;;4941972;28;20023;-69
2021/11/07 13:04:43;;;;;;;32.70;9.50;;;;;;;;;;4948736;28;20110;-69
2021/11/07 13:07:12;;;;;;;37.15;10.73;;;;;;;;;;4948442;28;20106;-68
2021/11/07 13:09:43;;;;;;;34.03;8.93;;;;;;;;;;4943967;28;20050;-68
2021/11/07 13:12:20;;;;;;;34.28;10.32;;;;;;;;;;4949099;28;20031;-68
2021/11/07 13:17:54;;;;;;;47.22;11.10;;;;;;;;;;4944490;28;20035;-69
2021/11/07 13:28:38;;;;;;;44.92;11.23;;;;;;;;;;4947784;28;20174;-68
2021/11/07 13:31:38;;;;;;;28.88;10.20;;;;;;;;;;4953832;28;20027;-68
2021/11/07 13:33:52;;;;;;;32.92;10.50;;;;;;;;;;4948244;28;20039;-69
2021/11/07 13:36:20;;;;;;;42.55;10.38;;;;;;;;;;4949328;28;20044;-69
2021/11/07 13:38:47;;;;;;;38.60;11.57;;;;;;;;;;4947642;28;20035;-68
2021/11/07 13:41:18;;;;;;;35.15;9.95;;;;;;;;;;4947259;28;20027;-69
2021/11/07 13:43:46;;;;;;;33.05;9.88;;;;;;;;;;4950241;28;20033;-69
2021/11/07 13:46:13;;;;;;;40.95;10.70;;;;;;;;;;4946652;28;20020;-69
2021/11/07 13:48:39;;;;;;;37.20;10.90;;;;;;;;;;4948464;28;20037;-69
2021/11/07 13:51:06;;;;;;;31.40;9.73;;;;;;;;;;4953382;28;20082;-69
2021/11/07 13:53:34;;;;;;;36.42;10.70;;;;;;;;;;4953231;28;20058;-69
2021/11/07 13:56:02;;;;;;;40.78;10.57;;;;;;;;;;4949479;28;20023;-69
2021/11/07 13:58:29;;;;;;;39.28;10.55;;;;;;;;;;4944616;28;20118;-69
2021/11/07 14:00:57;;;;;;;37.80;10.38;;;;;;;;;;4948699;28;20805;-69
2021/11/07 14:03:24;;;;;;;27.83;8.88;;;;;;;;;;4945030;28;20073;-69
2021/11/07 14:08:49;;;;;;;34.67;10.38;;;;;;;;;;4948507;28;20038;-69
2021/11/07 14:11:20;;;;;;;33.05;10.13;;;;;;;;;;4945374;28;20027;-69
2021/11/07 14:13:48;;;;;;;37.45;10.88;;;;;;;;;;4951861;28;20054;-69
2021/11/07 14:16:16;;;;;;;34.90;10.20;;;;;;;;;;4952593;28;20031;-69
2021/11/07 14:18:44;;;;;;;39.03;10.27;;;;;;;;;;4949602;28;20027;-69
2021/11/07 14:21:11;;;;;;;30.75;10.55;;;;;;;;;;4949707;28;20426;-69
2021/11/07 14:26:10;;;;;;;33.30;10.07;;;;;;;;;;4942020;28;20087;-68
2021/11/07 14:31:59;;;;;;;50.00;11.15;;;;;;;;;;4928781;28;20047;-69
2021/11/07 14:40:11;;;;;;;43.60;11.60;;;;;;;;;;4947184;28;20039;-69
2021/11/07 14:53:37;;;;;;;42.17;10.18;;;;;;;;;;4930963;28;20067;-69
2021/11/07 14:58:45;;;;;;;35.42;9.75;;;;;;;;;;4947588;28;20039;-70
2021/11/07 15:03:42;;;;;;;;;;;;;;;;;;4946187;28;20410;-69
2021/11/07 15:09:12;;;;;;;27.15;9.15;;;;;;;;;;4944347;28;20063;-69
2021/11/07 15:12:11;;;;;;;31.52;10.63;;;;;;;;;;4953872;28;20108;-68
2021/11/07 15:17:44;;;;;;;38.20;10.05;;;;;;;;;;4913728;28;20470;-70
2021/11/07 15:20:19;;;;;;;46.45;10.70;;;;;;;;;;4954795;28;20034;-69
2021/11/07 15:22:48;;;;;;;41.15;10.38;;;;;;;;;;4952099;28;20051;-69
2021/11/07 15:25:15;;;;;;;39.00;10.45;;;;;;;;;;4952542;28;20027;-69
2021/11/07 15:27:41;;;;;;;35.65;10.07;;;;;;;;;;4948598;28;20166;-69
2021/11/07 15:30:16;;;;;;;29.10;10.30;;;;;;;;;;4948092;28;20035;-69
2021/11/07 15:32:42;;;;;;;32.40;10.32;;;;;;;;;;4959147;28;20038;-69
2021/11/07 15:35:16;;;;;;;42.17;10.70;;;;;;;;;;4947368;28;20061;-69
2021/11/07 15:37:42;;;;;;;42.25;10.43;;;;;;;;;;4950271;28;20115;-69
2021/11/07 15:40:09;;;;;;;50.22;11.93;;;;;;;;;;4955999;28;20027;-69
2021/11/07 15:42:37;;;;;;;31.88;9.88;;;;;;;;;;4951289;28;20035;-69
2021/11/07 15:45:08;;;;;;;38.40;11.05;;;;;;;;;;4950442;28;20039;-68
2021/11/07 15:47:40;;;;;;;32.55;9.40;;;;;;;;;;4945411;28;20019;-69
2021/11/07 15:53:06;;;;;;;34.35;9.93;;;;;;;;;;4959821;28;20035;-69
2021/11/07 15:55:51;;;;;;;39.35;11.40;;;;;;;;;;4945480;28;20027;-68
2021/11/07 16:01:11;;;;;;;28.83;9.45;;;;;;;;;;4953011;28;20048;-69
2021/11/07 16:06:40;;;;;;;38.20;9.55;;;;;;;;;;4923897;28;20034;-68
2021/11/07 16:09:37;;;;;;;32.55;10.18;;;;;;;;;;4948723;28;20038;-68
2021/11/07 16:17:10;;;;;;;30.58;8.90;;;;;;;;;;4950919;28;20036;-69
2021/11/07 16:19:39;;;;;;;38.30;9.75;;;;;;;;;;4944746;28;20032;-68
2021/11/07 16:22:05;;;;;;;31.10;10.55;;;;;;;;;;4952585;28;20390;-68
2021/11/07 16:24:32;;;;;;;30.80;10.25;;;;;;;;;;4951727;28;20118;-69
2021/11/07 16:27:02;;;;;;;31.42;9.77;;;;;;;;;;4946472;28;20110;-69
2021/11/07 16:29:30;;;;;;;31.60;9.98;;;;;;;;;;4949607;28;20089;-68
2021/11/07 16:34:36;;;;;;;27.80;8.98;;;;;;;;;;4949321;28;20294;-69
2021/11/07 16:37:06;;;;;;;27.60;10.38;;;;;;;;;;4949316;28;20082;-69
2021/11/07 16:39:36;;;;;;;44.15;9.52;;;;;;;;;;4948429;28;20039;-68
2021/11/07 16:42:11;;;;;;;32.58;9.90;;;;;;;;;;4950996;28;20035;-69
2021/11/07 16:44:39;;;;;;;31.92;9.75;;;;;;;;;;4949193;28;20466;-69
2021/11/07 16:47:11;;;;;;;37.08;10.35;;;;;;;;;;4949178;28;20159;-68
2021/11/07 16:49:37;;;;;;;32.20;11.07;;;;;;;;;;4944120;28;20458;-69
2021/11/07 16:52:12;;;;;;;35.33;11.38;;;;;;;;;;4945968;28;20046;-69
2021/11/07 16:54:44;;;;;;;32.58;10.43;;;;;;;;;;4950393;28;20050;-68
2021/11/07 16:57:10;;;;;;;37.65;12.27;;;;;;;;;;4946511;28;20106;-69
2021/11/07 16:59:45;;;;;;;37.10;10.25;;;;;;;;;;4948171;28;20062;-68
2021/11/07 17:02:22;;;;;;;28.40;9.38;;;;;;;;;;4948193;28;20027;-69
2021/11/07 17:04:53;;;;;;;32.55;11.18;;;;;;;;;;4949608;28;20039;-69
2021/11/07 17:08:05;;;;;;;38.72;10.77;;;;;;;;;;4953140;28;20379;-69
2021/11/07 17:10:09;;;;;;;33.80;9.30;;;;;;;;;;4938300;28;20039;-69
2021/11/07 17:12:38;;;;;;;36.40;11.18;;;;;;;;;;4952703;28;20050;-70
2021/11/07 17:15:08;;;;;;;37.70;12.60;;;;;;;;;;4953709;28;20113;-68
2021/11/07 17:17:45;;;;;;;33.67;10.02;;;;;;;;;;4951364;28;20086;-69
2021/11/07 17:20:24;;;;;;;32.88;10.18;;;;;;;;;;4944939;28;20054;-68
2021/11/07 17:23:38;;;;;;;30.00;9.38;;;;;;;;;;4950106;28;20046;-69
2021/11/07 17:25:46;;;;;;;37.83;9.70;;;;;;;;;;4940747;28;20490;-69
2021/11/07 17:30:47;;;;;;;31.55;10.70;;;;;;;;;;4951917;28;20631;-69
2021/11/07 17:33:42;;;;;;;31.42;10.73;;;;;;;;;;4951381;28;20027;-68
2021/11/07 17:38:54;;;;;;;33.45;10.60;;;;;;;;;;4945179;28;20474;-68
2021/11/07 17:54:53;;;;;;;35.90;11.27;;;;;;;;;;4952637;28;20042;-68
2021/11/07 17:57:22;;;;;;;36.63;10.27;;;;;;;;;;4957350;28;20070;-69
2021/11/07 17:59:48;;;;;;;37.92;10.95;;;;;;;;;;4943618;28;20409;-69
2021/11/07 18:02:14;;;;;;;37.70;12.30;;;;;;;;;;4957135;28;20512;-68
2021/11/07 18:04:43;;;;;;;35.55;10.20;;;;;;;;;;4952825;28;20034;-68
2021/11/07 18:07:19;;;;;;;40.58;13.13;;;;;;;;;;4948674;28;20028;-69
2021/11/07 18:09:55;;;;;;;35.05;9.55;;;;;;;;;;4946961;28;20490;-68
2021/11/07 18:12:23;;;;;;;31.92;9.77;;;;;;;;;;4957729;28;20557;-68
2021/11/07 18:14:50;;;;;;;25.40;8.50;;;;;;;;;;4951050;28;20118;-68